Kaneohe, HI

12:08 PM HST on August 27, 2014 (GMT -1000)
APRSWXNET Kaneohe HI US | Change Station
CLOSE
Current Station
Personal Weather Station
Location: Kaneohe, HI
Elevation: 164 ft
Nearby Weather Stations

Elev 164 ft 21.40 °N, 157.81 °W | Updated 433 days ago

Rain
Rain
83 °F
Feels Like 87 °F
N
16
Wind Variable Wind from ENE
Gusts 21 mph

Today
High -- | Low -- °F
--% Chance of Precip.
Yesterday
High -- | Low -- °F
Precip. -- in
6:13 AM 6:51 PM
Waxing Crescent, 5% visible
Pressure 29.93 in
Visibility 7.0 miles
Clouds Clear
Heat Index 87 °F
Dew Point 70 °F
Humidity 64%
Rainfall 0.00 in
Snow Depth Not available.
UV 12 out of 12
Pollen Not available.
PM2.5 Good
Flu Activity Not available.
METAR PHNG 272157Z 05011G16KT 7SM CLR 28/21 A2994 RMK AO2 SLP134 T02800206 $

More Conditions Fewer Conditions

Pressure 29.93 in
Visibility 7.0 miles
Clouds Clear
Heat Index 87 °F
Dew Point 70 °F
Humidity 64%
Rainfall 0.00 in
Snow Depth Not available.
UV 12 out of 12
Pollen Not available.
PM2.5 Good
Flu Activity Not available.
METAR PHNG 272157Z 05011G16KT 7SM CLR 28/21 A2994 RMK AO2 SLP134 T02800206 $

More Conditions Fewer Conditions

10-Day Weather Forecast

Almanac

Astronomy

Aug. 27, 2014 Rise Set
Actual Time 6:13 AM HST 6:51 PM HST
Civil Twilight 5:50 AM HST 7:14 PM HST
Nautical Twilight 5:24 AM HST 7:40 PM HST
Astronomical Twilight 4:57 AM HST 8:07 PM HST
Moon 7:59 AM HST 8:13 PM HST
Length of Visible Light 13h 23m
Length of Day
12h 38m
Tomorrow will be 1m 10s shorter.
Waxing Crescent, 5% of the Moon is Illuminated
Today
Waxing Crescent
Sep 2
First Quarter
Sep 8
Full
Sep 15
Last Quarter
Sep 24
New

Today's Extremes

State Highs State Lows

Community

WunderPhotos

Upload Photos

1,747,798 photos uploaded!

Nearby

Air Quality

  Air Quality AQ Index Pollutant
Yesterday Good
PM10
Current Good
PM2.5
Wednesday Good
OZONE
Thursday Good
OZONE

Snow Depth

Station Depth Elevation
No new snow has been reported.

Earthquake Activity

City Distance Mag. Time & Date
No recent earthquake activity has been reported nearby.
Minimum magnitude displayed is 2.5.

Coastal Water Temperatures

Place Temperature
No Stations Reporting

Nearby Weather Stations